Terminal Aerodrome Forecast
Issued by NWS Charleston, WV

Current Version | Previous Version | Graphics & Text | Print | Product List | Glossary On
Versions: 1 2 3 4 5 6 7 8 9 10 11 12 13 14 15 16 17 18 19 20 21 22 23 24
934
FTUS41 KRLX 101739
TAFBKW
TAF
KBKW 101739Z 1018/1118 26011G22KT 3SM -SHSN SCT015 OVC020
      TEMPO 1018/1022 3/4SM -SHSN BKN008 OVC015
     FM110300 26010G15KT 5SM -SHSN OVC020
     FM110900 26005KT P6SM -SHSN OVC025
     FM111300 26007KT P6SM OVC030=

USA.gov is the U.S. government's official web portal to all federal, state and local government web resources and services.